DW6942 Weather Reports


Display with metric or nautical units.
time (UTC)temp
F
wind
direction
speed
MPH
gust
MPH
rain 1hr
in
rain 24hr
in
rain mn
in
humidity
%
barometer
mb
20200225201515 70 334 0.0 0.0 0.00 0.00 0.00 52 1013.9
20200225200013 70 354 0.0 0.0 0.00 0.00 0.00 51 1013.9
20200225194526 70 263 0.0 0.0 0.00 0.00 0.00 52 1014.0
20200225193009 70 40 0.0 0.0 0.00 0.00 0.00 54 1014.3
20200225191503 69 54 0.0 0.0 0.00 0.00 0.00 54 1014.5
20200225190001 69 300 0.0 0.0 0.00 0.00 0.00 56 1014.8
20200225184657 68 323 0.0 0.0 0.00 0.00 0.00 55 1015.1
20200225183145 68 40 0.0 0.0 0.00 0.00 0.00 55 1015.2
20200225181712 68 342 0.0 0.0 0.00 0.00 0.00 55 1015.5
20200225180221 67 315 0.0 0.0 0.00 0.00 0.00 56 1015.7
20200225174721 67 97 0.0 0.0 0.00 0.00 0.00 60 1015.9
20200225173202 66 352 0.0 0.0 0.00 0.00 0.00 61 1016.1
20200225171739 65 274 0.0 0.0 0.00 0.00 0.00 61 1016.0
20200225170129 64 289 0.0 0.0 0.00 0.00 0.00 65 1016.1
20200225164632 63 142 0.0 0.0 0.00 0.00 0.00 65 1016.0
20200225163043 62 76 0.0 0.0 0.00 0.00 0.00 70 1015.8
20200225161627 61 70 0.0 0.0 0.00 0.00 0.00 70 1015.9
20200225160045 59 250 0.0 0.0 0.00 0.00 0.00 72 1016.0
20200225154557 59 341 0.0 0.0 0.00 0.00 0.00 73 1016.0
20200225153042 58 50 0.0 0.0 0.00 0.00 0.00 75 1015.8
20200225151534 57 246 0.0 0.0 0.00 0.00 0.00 78 1015.8
20200225150042 56 70 0.0 0.0 0.00 0.00 0.00 83 1015.7
20200225144522 54 268 0.0 0.0 0.00 0.14 0.00 90 1015.5
20200225143011 51 280 0.0 0.0 0.00 0.14 0.00 94 1015.4
20200225141539 49 297 0.0 0.0 0.00 0.14 0.00 95 1015.2
20200225140007 48 323 0.0 0.0 0.00 0.14 0.00 95 1014.8
20200225134501 47 279 0.0 0.0 0.00 0.14 0.00 94 1014.6
20200225133327 46 281 0.0 0.0 0.00 0.14 0.00 94 1014.7
20200225131643 45 281 0.0 0.0 0.00 0.14 0.00 94 1014.4
20200225130117 44 281 0.0 0.0 0.00 0.14 0.00 94 1013.9
20200225124654 44 356 0.0 0.0 0.00 0.14 0.00 94 1013.6
20200225123206 43 356 0.0 0.0 0.00 0.14 0.00 94 1013.4
20200225121644 44 355 0.0 0.0 0.00 0.14 0.00 94 1013.2
20200225120119 44 355 0.0 0.0 0.00 0.14 0.00 94 1013.0
20200225114648 43 355 0.0 0.0 0.00 0.14 0.00 94 1012.0
20200225113132 43 355 0.0 0.0 0.00 0.14 0.00 94 1012.3
20200225111833 44 355 0.0 0.0 0.00 0.14 0.00 94 1012.0
20200225110118 44 355 0.0 0.0 0.00 0.14 0.00 94 1012.1
20200225104637 44 355 0.0 0.0 0.00 0.14 0.00 93 1012.1
20200225103116 45 355 0.0 0.0 0.00 0.14 0.00 93 1012.0
20200225101641 45 355 0.0 0.0 0.00 0.14 0.00 93 1011.7
20200225100105 45 355 0.0 0.0 0.00 0.14 0.00 93 1011.6
20200225094635 46 355 0.0 0.0 0.00 0.14 0.00 93 1011.3
20200225093123 46 355 0.0 0.0 0.00 0.14 0.00 93 1011.3
20200225090141 46 355 0.0 0.0 0.00 0.14 0.00 93 1011.7
20200225084607 47 355 0.0 0.0 0.00 0.14 0.00 93 1011.6
20200225083048 47 355 0.0 0.0 0.00 0.14 0.00 93 1011.6
20200225081539 47 355 0.0 0.0 0.00 0.14 0.00 93 1011.6
20200225080035 48 355 0.0 0.0 0.00 0.14 0.00 93 1011.7
20200225074623 48 355 0.0 0.0 0.00 0.14 0.00 92 1011.9
20200225073019 49 355 0.0 0.0 0.00 0.14 0.00 92 1012.0
20200225071521 49 355 0.0 0.0 0.00 0.14 0.00 92 1012.1
20200225070015 49 355 0.0 0.0 0.00 0.14 0.00 92 1012.4
20200225064515 49 355 0.0 0.0 0.00 0.14 0.00 92 1012.3
20200225063011 50 355 0.0 0.0 0.00 0.14 0.00 92 1012.4
20200225061540 50 355 0.0 0.0 0.00 0.14 0.00 92 1012.5
20200225060036 50 356 0.0 0.0 0.00 0.14 0.00 92 1012.5
20200225054506 51 355 0.0 0.0 0.00 0.14 0.14 92 1012.4
20200225053229 51 355 0.0 0.0 0.00 0.14 0.14 92 1012.4
20200225051722 51 355 0.0 0.0 0.00 0.14 0.14 91 1012.4
20200225050148 51 355 0.0 0.0 0.00 0.14 0.14 91 1012.5
20200225044621 51 355 0.0 0.0 0.00 0.14 0.14 91 1012.6
20200225043123 51 355 0.0 0.0 0.00 0.14 0.14 91 1012.4
20200225041551 52 355 0.0 0.0 0.00 0.14 0.14 91 1012.4
20200225040154 52 355 0.0 0.0 0.00 0.14 0.14 91 1012.2
20200225034601 52 355 0.0 0.0 0.00 0.14 0.14 90 1012.3
20200225033032 53 355 0.0 0.0 0.00 0.14 0.14 90 1012.2
20200225031530 53 355 0.0 0.0 0.00 0.14 0.14 90 1012.0
20200225030020 53 355 0.0 0.0 0.00 0.14 0.14 90 1011.9
20200225024612 54 355 0.0 0.0 0.00 0.14 0.14 89 1011.8
20200225023020 54 355 0.0 0.0 0.00 0.14 0.14 88 1011.7
20200225020236 55 356 0.0 0.0 0.00 0.14 0.14 86 1011.3
20200225014625 55 355 0.0 0.0 0.00 0.14 0.14 84 1011.2
20200225013327 56 355 0.0 0.0 0.00 0.14 0.14 83 1011.0
20200225011700 57 355 0.0 0.0 0.00 0.14 0.14 85 1011.0
20200225010108 58 355 0.0 0.0 0.00 0.14 0.14 80 1010.7
20200225004611 58 355 0.0 0.0 0.00 0.14 0.14 77 1010.6
20200225003120 60 356 0.0 0.0 0.00 0.14 0.14 77 1010.6
20200225001534 61 355 0.0 0.0 0.00 0.14 0.14 74 1010.5
20200225000047 63 355 0.0 0.0 0.00 0.14 0.14 72 1010.5
20200224234600 64 355 0.0 0.0 0.00 0.14 0.14 61 1010.4
20200224233122 65 355 0.0 0.0 0.00 0.14 0.14 56 1010.3
20200224231507 66 39 0.0 0.0 0.00 0.14 0.14 57 1010.3
20200224230002 67 53 0.0 0.0 0.00 0.14 0.14 54 1010.2
20200224224730 68 289 0.0 0.0 0.00 0.14 0.14 58 1010.2
20200224223123 68 135 0.0 0.0 0.00 0.14 0.14 54 1010.0
20200224221602 69 228 0.0 0.0 0.00 0.14 0.14 56 1009.9
20200224220136 69 342 0.0 0.0 0.00 0.14 0.14 52 1009.9
20200224214803 69 214 0.0 0.0 0.00 0.14 0.14 52 1010.0
20200224213154 69 345 0.0 0.0 0.00 0.14 0.14 54 1009.9
20200224211654 68 111 0.0 0.0 0.00 0.14 0.14 52 1009.9
20200224210031 68 231 0.0 0.0 0.00 0.14 0.14 51 1010.0
20200224204540 68 117 0.0 0.0 0.00 0.14 0.14 56 1010.0
20200224203034 68 355 0.0 0.0 0.00 0.14 0.14 51 1010.1